createdAt,value
2022-12-15T04:56:58.945Z,26.80
2022-12-15T05:00:19.624Z,29.08
2022-12-15T05:03:40.948Z,28.48
2022-12-15T05:07:02.028Z,26.90
2022-12-15T05:10:23.292Z,27.75
2022-12-15T05:13:44.397Z,26.58
2022-12-15T05:17:05.340Z,28.50
2022-12-15T05:20:26.733Z,27.35
2022-12-15T05:23:47.527Z,28.77
2022-12-15T05:27:08.279Z,26.55
2022-12-15T05:30:29.445Z,31.58
2022-12-15T05:33:32.061Z,28.48
2022-12-15T05:36:34.312Z,27.45
2022-12-15T05:39:36.740Z,29.00
2022-12-15T05:42:38.884Z,30.45
2022-12-15T05:45:41.166Z,30.60
2022-12-15T05:48:43.302Z,28.40
2022-12-15T05:51:47.963Z,28.60
2022-12-15T05:54:49.989Z,31.05
2022-12-15T05:57:53.983Z,28.75
2022-12-15T06:01:03.912Z,31.60
2022-12-15T06:04:07.439Z,30.25
2022-12-15T06:07:09.467Z,31.12
2022-12-15T06:10:11.932Z,31.52
2022-12-15T06:13:13.945Z,31.20
2022-12-15T06:16:18.976Z,31.15
2022-12-15T06:19:21.131Z,31.10
2022-12-15T06:22:23.483Z,30.95
2022-12-15T06:25:26.746Z,31.27
2022-12-15T06:28:29.496Z,31.40
2022-12-15T06:31:33.021Z,30.80
2022-12-15T06:34:35.661Z,30.67
2022-12-15T06:37:37.818Z,30.70
2022-12-15T06:40:40.602Z,30.85
2022-12-15T06:43:43.534Z,30.48
2022-12-15T06:46:46.430Z,31.80
2022-12-15T06:49:48.653Z,31.60
2022-12-15T06:52:51.077Z,32.28
2022-12-15T06:55:53.292Z,32.13
2022-12-15T06:58:55.941Z,36.08
2022-12-15T07:01:58.428Z,31.95
2022-12-15T07:05:01.151Z,30.27
2022-12-15T07:08:03.232Z,30.88
2022-12-15T07:11:10.431Z,30.75
2022-12-15T07:14:12.510Z,27.30
2022-12-15T07:17:14.829Z,29.17
2022-12-15T07:20:17.443Z,27.70
2022-12-15T07:23:39.881Z,28.27
2022-12-15T07:26:48.916Z,28.75
2022-12-15T07:29:52.362Z,29.33
2022-12-15T07:32:54.473Z,30.92
2022-12-15T07:35:56.864Z,31.00
2022-12-15T07:39:00.991Z,32.67
2022-12-15T07:42:03.768Z,31.02
2022-12-15T07:45:07.417Z,27.95
2022-12-15T07:48:09.871Z,28.20
2022-12-15T07:51:19.090Z,29.52
2022-12-15T07:54:22.116Z,29.15
2022-12-15T07:57:24.290Z,31.30
2022-12-15T08:00:27.933Z,30.70
2022-12-15T08:03:31.057Z,30.50
2022-12-15T08:06:33.735Z,30.30
2022-12-15T08:09:37.090Z,29.87
2022-12-15T08:12:39.169Z,31.10
2022-12-15T08:15:41.649Z,28.90
2022-12-15T08:18:43.763Z,30.33
2022-12-15T08:21:46.965Z,29.45
2022-12-15T08:24:49.133Z,28.92
2022-12-15T08:27:52.359Z,29.48
2022-12-15T08:30:54.685Z,28.73
2022-12-15T08:33:57.612Z,30.12
2022-12-15T08:37:00.364Z,29.02
2022-12-15T08:40:03.987Z,29.40
2022-12-15T08:43:06.022Z,29.48
2022-12-15T08:46:08.732Z,30.75
2022-12-15T08:49:10.889Z,30.52
2022-12-15T08:52:13.704Z,30.67
2022-12-15T08:55:22.157Z,32.45
2022-12-15T08:58:25.140Z,32.03
2022-12-15T09:01:29.910Z,32.90
2022-12-15T09:04:32.438Z,30.02
2022-12-15T09:07:35.864Z,31.15
2022-12-15T09:10:41.978Z,31.20
2022-12-15T09:13:44.419Z,30.30
2022-12-15T09:16:46.773Z,30.92
2022-12-15T09:19:52.939Z,31.87
2022-12-15T09:22:55.239Z,31.60
2022-12-15T09:26:01.576Z,30.23
2022-12-15T09:32:10.636Z,30.67
2022-12-15T09:35:17.344Z,30.25
2022-12-15T09:38:19.524Z,31.85
2022-12-15T09:41:27.403Z,32.97
2022-12-15T09:44:32.211Z,30.15
2022-12-15T09:47:46.239Z,30.37
2022-12-15T09:50:52.708Z,31.77
2022-12-15T09:53:56.465Z,32.38
2022-12-15T09:57:05.522Z,33.20
2022-12-15T10:00:11.219Z,30.98
2022-12-15T10:04:09.479Z,33.38
2022-12-15T10:07:29.790Z,32.40
2022-12-15T10:10:56.421Z,33.75
2022-12-15T10:14:02.571Z,33.88
2022-12-15T10:17:28.451Z,35.28
2022-12-15T10:20:32.408Z,33.22
2022-12-15T10:23:37.652Z,33.88
2022-12-15T10:26:42.825Z,34.17
2022-12-15T10:30:05.183Z,36.63
2022-12-15T10:33:29.049Z,32.20
2022-12-15T10:36:31.761Z,35.45
2022-12-15T10:39:42.141Z,33.00
2022-12-15T10:42:49.684Z,33.95
2022-12-15T10:46:11.902Z,35.05
2022-12-15T10:49:14.238Z,35.80
2022-12-15T10:52:23.886Z,36.58
2022-12-15T10:55:49.746Z,38.15
2022-12-15T10:58:58.249Z,36.53
2022-12-15T11:02:28.533Z,34.15
2022-12-15T11:05:30.755Z,35.05
2022-12-15T11:08:33.673Z,36.50
2022-12-15T11:12:05.086Z,35.55
2022-12-15T11:15:22.480Z,34.15
2022-12-15T11:18:50.262Z,37.50
2022-12-15T11:22:00.051Z,36.67
2022-12-15T11:25:20.875Z,36.30
2022-12-15T11:28:51.169Z,36.55
2022-12-15T11:31:55.452Z,36.30
2022-12-15T11:34:58.044Z,36.08
2022-12-15T11:38:26.501Z,36.33
2022-12-15T11:42:02.092Z,36.38
2022-12-15T11:45:22.544Z,37.25
2022-12-15T11:48:48.968Z,36.85
2022-12-15T11:51:59.244Z,37.00
2022-12-15T11:55:35.915Z,37.17
2022-12-15T11:58:56.176Z,35.28
2022-12-15T12:02:10.929Z,37.17
2022-12-15T12:05:25.291Z,36.78
2022-12-15T12:08:42.379Z,38.55
2022-12-15T12:12:11.853Z,39.00
2022-12-15T12:15:13.838Z,36.90
2022-12-15T12:18:42.961Z,36.80
2022-12-15T12:21:51.132Z,37.30
2022-12-15T12:25:17.384Z,37.90
2022-12-15T12:28:25.514Z,35.22
2022-12-15T12:31:46.255Z,38.47
2022-12-15T12:38:34.695Z,36.72
2022-12-15T12:42:06.507Z,38.85
2022-12-15T12:45:13.465Z,37.97
2022-12-15T12:51:31.682Z,37.92
2022-12-15T12:54:37.003Z,37.03
2022-12-15T12:57:43.871Z,39.78
2022-12-15T13:04:10.304Z,38.40
2022-12-15T13:07:32.535Z,38.40
2022-12-15T13:10:43.388Z,59.35
2022-12-15T13:13:51.105Z,44.28
2022-12-15T13:17:24.996Z,40.17
2022-12-15T13:20:30.342Z,39.15
2022-12-15T13:23:37.316Z,39.95
2022-12-15T13:26:44.930Z,40.78
2022-12-15T13:30:08.406Z,39.13
2022-12-15T13:33:17.471Z,41.25
2022-12-15T13:36:41.107Z,41.80
2022-12-15T13:39:56.572Z,40.03
2022-12-15T13:43:31.907Z,37.58
2022-12-15T13:46:35.860Z,39.38
2022-12-15T13:50:03.049Z,39.88
2022-12-15T13:53:20.897Z,40.85
2022-12-15T13:56:49.187Z,41.15
2022-12-15T14:00:05.066Z,38.58
2022-12-15T14:03:13.950Z,42.35
2022-12-15T14:06:16.960Z,41.65
2022-12-15T14:09:32.662Z,40.60
2022-12-15T14:12:35.068Z,39.97
2022-12-15T14:15:42.749Z,40.58
2022-12-15T14:19:02.140Z,40.95
2022-12-15T14:22:04.212Z,42.62
2022-12-15T14:25:18.893Z,37.78
2022-12-15T14:28:26.094Z,42.65
2022-12-15T14:31:28.669Z,41.92
2022-12-15T14:34:39.883Z,43.80
2022-12-15T14:37:43.640Z,43.53
2022-12-15T14:40:49.258Z,40.12
2022-12-15T14:44:32.255Z,43.90
2022-12-15T14:50:26.462Z,41.13
2022-12-15T14:53:33.648Z,45.10
2022-12-15T14:56:35.996Z,43.03
2022-12-15T14:59:44.691Z,43.13
2022-12-15T15:02:47.080Z,42.58
2022-12-15T15:03:05.022Z,39.13
2022-12-15T15:06:03.639Z,56.15
2022-12-15T15:09:23.208Z,40.72
2022-12-15T15:12:44.110Z,42.15
2022-12-15T15:15:56.129Z,42.80
2022-12-15T15:19:02.730Z,43.25
2022-12-15T15:22:05.647Z,43.65
2022-12-15T15:25:28.204Z,45.63
2022-12-15T15:28:41.978Z,42.67
2022-12-15T15:31:44.654Z,43.20
2022-12-15T15:34:47.424Z,42.55
2022-12-15T15:37:51.585Z,40.12
2022-12-15T15:40:56.406Z,40.42
2022-12-15T15:44:00.555Z,42.33
2022-12-15T15:47:03.568Z,42.17
2022-12-15T15:50:06.382Z,40.40
2022-12-15T15:53:16.989Z,40.15
2022-12-15T15:56:19.842Z,41.42
2022-12-15T15:59:22.175Z,40.55
2022-12-15T16:02:24.409Z,38.70
2022-12-15T16:05:26.900Z,39.53
2022-12-15T16:08:33.950Z,38.03
2022-12-15T16:11:37.852Z,37.60
2022-12-15T16:14:39.877Z,36.72
2022-12-15T16:17:43.054Z,38.38
2022-12-15T16:20:48.929Z,36.20
2022-12-15T16:23:51.417Z,38.17
2022-12-15T16:26:53.500Z,34.25
2022-12-15T16:29:55.797Z,34.00
2022-12-15T16:32:58.160Z,33.63
2022-12-15T16:36:00.820Z,33.38
2022-12-15T16:39:03.875Z,33.80
2022-12-15T16:42:09.200Z,34.20
2022-12-15T16:45:16.913Z,44.60
2022-12-15T16:48:20.970Z,35.78
2022-12-15T16:51:40.005Z,30.00
